Time;durP1;ratioP1;P1;durP2;ratioP2;P2;SDS_P1;SDS_P2;PMS_P1;PMS_P2;Temp;Humidity;BMP_temperature;BMP_pressure;BME280_temperature;BME280_humidity;BME280_pressure;Samples;Min_cycle;Max_cycle;Signal;HPM_P1;HPM_P2
2022/06/10 00:00:50;;;;;;;;;15.80;13.20;;;;;22.63;61.22;98588.34;6251802;27;96489;-75
2022/06/10 00:03:53;;;;;;;;;14.00;12.00;;;;;22.67;61.78;98588.56;6244336;27;98426;-75
2022/06/10 00:06:57;;;;;;;;;14.00;13.60;;;;;22.65;61.50;98588.88;6263513;27;97460;-74
2022/06/10 00:10:02;;;;;;;;;13.00;11.20;;;;;22.65;61.61;98593.56;6244834;27;97654;-74
2022/06/10 00:13:06;;;;;;;;;14.00;12.00;;;;;22.67;61.55;98589.41;6262717;27;97514;-74
2022/06/10 00:16:10;;;;;;;;;17.25;13.00;;;;;22.62;61.77;98588.69;6262196;27;97485;-75
2022/06/10 00:19:14;;;;;;;;;14.80;11.20;;;;;22.54;62.12;98587.47;6263042;27;96567;-74
2022/06/10 00:22:19;;;;;;;;;13.40;11.40;;;;;22.66;62.07;98603.44;6262273;27;97284;-74
2022/06/10 00:25:24;;;;;;;;;15.60;13.20;;;;;22.67;61.66;98596.81;6244296;27;98559;-75
2022/06/10 00:28:27;;;;;;;;;14.20;13.20;;;;;22.48;61.85;98573.00;6223775;27;96849;-75
2022/06/10 00:31:31;;;;;;;;;15.80;13.40;;;;;22.70;61.68;98601.69;6258877;27;97245;-74
2022/06/10 00:34:35;;;;;;;;;13.60;11.00;;;;;22.70;61.40;98602.53;6262849;27;96586;-75
2022/06/10 00:37:39;;;;;;;;;15.00;13.40;;;;;22.65;61.54;98599.88;6230475;27;98720;-75
2022/06/10 00:40:49;;;;;;;;;12.60;11.60;;;;;22.63;61.52;98607.59;6247015;27;98127;-75
2022/06/10 00:43:52;;;;;;;;;14.00;12.40;;;;;22.66;61.26;98603.44;6248569;27;97630;-76
2022/06/10 00:46:57;;;;;;;;;14.20;12.00;;;;;22.65;61.05;98610.03;6227120;27;98299;-75
2022/06/10 00:50:11;;;;;;;;;16.60;14.60;;;;;22.69;61.35;98624.78;6241673;27;99721;-74
2022/06/10 00:53:20;;;;;;;;;14.00;13.00;;;;;22.69;61.27;98625.59;6262871;27;96433;-74
2022/06/10 00:56:29;;;;;;;;;14.67;13.00;;;;;22.68;61.69;98629.47;6260006;27;97518;-75
2022/06/10 00:59:36;;;;;;;;;16.80;15.40;;;;;22.57;61.79;98633.56;6258628;27;97338;-75
2022/06/10 01:02:41;;;;;;;;;14.40;14.20;;;;;22.59;62.41;98622.25;6262255;27;96617;-75
2022/06/10 01:05:44;;;;;;;;;15.00;15.00;;;;;22.59;62.71;98625.81;6262282;27;96819;-76
2022/06/10 01:08:49;;;;;;;;;14.80;14.00;;;;;22.60;62.37;98623.88;6227357;27;97045;-75
2022/06/10 01:12:13;;;;;;;;;15.00;14.00;;;;;22.60;62.52;98615.63;6260115;27;97608;-74
2022/06/10 01:15:32;;;;;;;;;16.00;14.00;;;;;22.59;62.64;98619.50;6242832;27;98734;-75
2022/06/10 01:18:47;;;;;;;;;16.20;14.00;;;;;22.58;62.24;98617.91;6261815;27;97068;-74
2022/06/10 01:22:23;;;;;;;;;18.40;15.40;;;;;22.57;62.69;98617.09;6261311;27;97723;-74
2022/06/10 01:25:50;;;;;;;;;18.00;15.00;;;;;22.50;62.36;98604.84;6258056;27;96486;-75
2022/06/10 01:29:28;;;;;;;;;12.60;12.60;;;;;22.52;62.03;98608.13;6242178;27;97810;-74
2022/06/10 01:32:41;;;;;;;;;16.00;14.00;;;;;22.26;61.87;98578.44;6262107;27;96483;-75
2022/06/10 01:36:02;;;;;;;;;13.80;11.20;;;;;22.48;61.91;98627.13;6243898;27;97221;-75
2022/06/10 01:39:12;;;;;;;;;13.00;11.25;;;;;22.42;61.90;98625.63;6257376;27;97493;-75
2022/06/10 01:42:24;;;;;;;;;13.20;12.20;;;;;22.41;61.76;98624.81;6217728;28;99789;-76
2022/06/10 01:45:34;;;;;;;;;14.80;12.40;;;;;22.42;61.50;98629.19;6251382;27;97384;-75
2022/06/10 01:48:49;;;;;;;;;13.75;11.00;;;;;22.39;61.50;98629.78;6261300;27;97427;-75
2022/06/10 01:52:00;;;;;;;;;15.40;13.00;;;;;22.32;61.47;98636.81;6261778;27;96913;-75
2022/06/10 01:55:12;;;;;;;;;13.20;11.20;;;;;22.26;61.41;98635.28;6243606;27;97293;-75
2022/06/10 01:58:21;;;;;;;;;13.00;10.60;;;;;22.22;61.74;98642.50;6260275;27;96664;-76
2022/06/10 02:01:29;;;;;;;;;12.50;12.00;;;;;22.08;62.30;98636.19;6240866;27;96887;-75
2022/06/10 02:04:40;;;;;;;;;14.00;12.00;;;;;22.05;63.07;98643.06;6255873;27;96895;-74
2022/06/10 02:07:50;;;;;;;;;12.60;12.60;;;;;21.96;63.03;98639.41;6262234;27;96618;-75
2022/06/10 02:11:00;;;;;;;;;15.00;12.00;;;;;21.94;63.43;98655.38;6226016;27;98221;-76
2022/06/10 02:14:08;;;;;;;;;16.00;14.50;;;;;21.78;64.51;98637.50;6241682;27;97507;-77
2022/06/10 02:17:16;;;;;;;;;16.00;14.50;;;;;21.61;64.77;98605.94;6241756;27;97548;-77
2022/06/10 02:20:24;;;;;;;;;17.60;15.60;;;;;21.85;65.32;98646.16;6240671;27;97666;-76
2022/06/10 02:23:32;;;;;;;;;16.00;14.67;;;;;21.79;66.01;98647.38;6243397;27;97463;-75
2022/06/10 02:26:37;;;;;;;;;21.80;18.80;;;;;21.74;66.03;98653.75;6225807;27;99725;-75
2022/06/10 02:29:50;;;;;;;;;21.60;18.00;;;;;21.54;66.14;98632.13;6260180;27;97450;-73
2022/06/10 02:32:55;;;;;;;;;24.00;20.00;;;;;21.65;66.45;98655.53;6242434;27;98433;-76
2022/06/10 02:36:11;;;;;;;;;23.60;21.00;;;;;21.70;66.91;98651.91;6259903;27;97061;-75
2022/06/10 02:39:22;;;;;;;;;22.00;19.00;;;;;21.67;66.76;98652.50;6237278;27;97853;-75
2022/06/10 02:42:34;;;;;;;;;20.00;18.75;;;;;21.47;66.86;98624.28;6234632;27;98267;-74
2022/06/10 02:45:45;;;;;;;;;25.60;22.20;;;;;21.79;66.55;98661.09;6229786;27;97896;-76
2022/06/10 02:48:58;;;;;;;;;27.00;21.40;;;;;21.79;66.21;98672.06;6251798;27;97369;-75
2022/06/10 02:52:03;;;;;;;;;26.80;22.40;;;;;21.64;67.16;98678.63;6265107;27;96421;-76
2022/06/10 02:55:14;;;;;;;;;23.00;20.60;;;;;21.70;66.81;98685.63;6247334;27;98440;-76
2022/06/10 03:01:48;;;;;;;;;25.75;20.75;;;;;21.64;67.35;98689.59;6243095;27;96765;-76
2022/06/10 03:05:05;;;;;;;;;26.20;22.40;;;;;21.58;67.35;98693.50;6245718;27;98181;-76
2022/06/10 03:08:23;;;;;;;;;24.20;22.60;;;;;21.61;67.30;98692.91;6244839;27;97224;-76
2022/06/10 03:11:36;;;;;;;;;24.00;21.40;;;;;21.53;67.96;98680.69;6265304;27;97292;-77
2022/06/10 03:14:45;;;;;;;;;25.25;22.00;;;;;21.55;67.76;98705.88;6246300;27;99483;-75
2022/06/10 03:18:01;;;;;;;;;27.50;21.75;;;;;21.48;69.03;98708.19;6247162;27;97499;-75
2022/06/10 03:21:16;;;;;;;;;27.00;24.00;;;;;21.52;69.12;98717.47;6246507;27;97012;-76
2022/06/10 03:24:31;;;;;;;;;25.00;22.50;;;;;21.55;69.29;98725.09;6264808;27;97237;-77
2022/06/10 03:27:41;;;;;;;;;32.00;25.00;;;;;21.56;69.05;98721.25;6235929;27;98121;-77
2022/06/10 03:30:51;;;;;;;;;28.00;24.00;;;;;21.52;69.05;98727.63;6247493;27;97185;-75
2022/06/10 03:34:02;;;;;;;;;28.40;25.00;;;;;20.89;69.89;98631.16;6239249;27;97007;-76
2022/06/10 03:37:09;;;;;;;;;27.20;22.60;;;;;21.36;69.15;98707.81;6229484;27;98326;-74
2022/06/10 03:40:19;;;;;;;;;23.60;22.00;;;;;21.66;69.75;98739.47;6221852;28;97248;-75
2022/06/10 03:43:24;;;;;;;;;30.00;23.75;;;;;21.78;68.44;98748.09;6221667;28;96431;-75
2022/06/10 03:46:31;;;;;;;;;26.00;24.00;;;;;21.80;69.30;98748.59;6236288;27;97727;-74
2022/06/10 03:49:44;;;;;;;;;29.50;24.50;;;;;21.90;68.72;98747.59;6244069;27;97796;-76
2022/06/10 03:52:47;;;;;;;;;28.40;25.00;;;;;21.87;68.55;98729.00;6249511;27;97237;-75
2022/06/10 03:55:52;;;;;;;;;32.00;24.00;;;;;22.13;67.79;98749.47;6227265;27;96835;-74
2022/06/10 03:58:55;;;;;;;;;26.00;22.60;;;;;22.14;67.88;98747.53;6246371;27;98577;-76
2022/06/10 04:01:59;;;;;;;;;27.20;24.20;;;;;22.16;67.57;98754.34;6244934;27;98429;-75
2022/06/10 04:05:02;;;;;;;;;28.40;23.40;;;;;21.98;67.63;98716.78;6227792;27;97582;-70
2022/06/10 04:08:06;;;;;;;;;32.50;26.00;;;;;22.34;67.61;98764.47;6262361;27;97560;-76
2022/06/10 04:11:12;;;;;;;;;31.50;28.25;;;;;22.35;67.29;98759.78;6227548;27;97370;-76
2022/06/10 04:14:15;;;;;;;;;29.00;23.40;;;;;22.42;66.74;98769.28;6230249;27;98170;-75
2022/06/10 04:17:18;;;;;;;;;29.00;27.00;;;;;22.57;66.60;98764.63;6246562;27;97825;-76
2022/06/10 04:20:25;;;;;;;;;27.00;23.40;;;;;22.73;66.04;98768.75;6228495;27;99021;-76
2022/06/10 04:23:29;;;;;;;;;25.00;23.00;;;;;22.82;65.88;98777.94;6228298;27;97235;-76
2022/06/10 04:26:33;;;;;;;;;23.75;21.00;;;;;22.88;65.51;98784.94;6240997;27;96722;-76
2022/06/10 04:29:37;;;;;;;;;27.40;23.80;;;;;22.98;64.49;98786.69;6261236;27;97145;-77
2022/06/10 04:32:40;;;;;;;;;26.00;23.40;;;;;23.07;64.51;98788.41;6248158;27;98419;-77
2022/06/10 04:35:46;;;;;;;;;25.00;19.40;;;;;23.14;63.75;98796.25;6244638;27;96291;-77
2022/06/10 04:38:49;;;;;;;;;22.00;17.40;;;;;23.26;63.03;98799.31;6251434;27;96690;-76
2022/06/10 04:41:54;;;;;;;;;19.60;17.00;;;;;23.23;62.33;98795.22;6263012;27;97460;-76
2022/06/10 04:44:57;;;;;;;;;20.00;18.00;;;;;23.44;61.74;98795.63;6244668;27;99211;-76
2022/06/10 04:48:01;;;;;;;;;21.00;17.40;;;;;23.43;61.15;98806.94;6239181;27;97373;-76
2022/06/10 04:51:05;;;;;;;;;23.40;18.00;;;;;23.27;60.81;98815.50;6245967;27;96401;-75
2022/06/10 04:54:10;;;;;;;;;20.00;18.00;;;;;23.27;61.15;98814.69;6243355;27;97212;-76
2022/06/10 04:57:15;;;;;;;;;21.80;19.00;;;;;23.26;61.29;98818.59;6241606;27;98202;-76
2022/06/10 05:00:21;;;;;;;;;19.40;17.00;;;;;23.09;61.23;98823.84;6216355;27;96754;-75
2022/06/10 05:03:24;;;;;;;;;22.00;18.80;;;;;23.04;61.42;98812.97;6258453;27;98985;-77
2022/06/10 05:06:28;;;;;;;;;23.40;19.00;;;;;22.99;62.19;98824.88;6252229;27;96891;-76
2022/06/10 05:09:31;;;;;;;;;23.00;19.00;;;;;23.04;62.43;98830.28;6239290;27;96887;-76
2022/06/10 05:12:36;;;;;;;;;20.25;16.75;;;;;23.06;62.14;98836.31;6253860;27;96670;-76
2022/06/10 05:15:39;;;;;;;;;18.60;16.00;;;;;22.95;62.35;98834.03;6254377;27;97611;-76
2022/06/10 05:18:43;;;;;;;;;16.80;15.80;;;;;22.88;63.14;98843.50;6254876;27;97443;-76
2022/06/10 05:21:46;;;;;;;;;18.00;17.00;;;;;23.03;62.91;98849.81;6231344;27;97122;-76
2022/06/10 05:24:50;;;;;;;;;20.00;19.00;;;;;23.05;63.33;98847.59;6226318;27;96948;-76
2022/06/10 05:27:54;;;;;;;;;20.00;17.00;;;;;23.02;62.73;98851.75;6243567;27;98922;-77
2022/06/10 05:30:58;;;;;;;;;19.50;17.00;;;;;23.14;63.15;98857.59;6217746;27;96728;-76
2022/06/10 05:37:24;;;;;;;;;22.25;20.25;;;;;23.50;62.35;98865.97;6220274;27;98382;-76
2022/06/10 05:40:30;;;;;;;;;19.25;18.25;;;;;23.52;62.10;98863.72;6240678;27;97658;-76
2022/06/10 05:43:36;;;;;;;;;21.00;19.50;;;;;23.62;61.78;98869.00;6261567;27;96524;-76
2022/06/10 05:46:39;;;;;;;;;26.00;21.00;;;;;23.67;61.72;98881.84;6226655;27;99100;-76
2022/06/10 05:49:46;;;;;;;;;26.00;22.20;;;;;23.60;61.90;98876.75;6260565;27;97371;-75
2022/06/10 05:52:49;;;;;;;;;26.20;22.00;;;;;23.61;62.22;98883.06;6244255;27;97129;-76
2022/06/10 05:55:53;;;;;;;;;25.80;22.80;;;;;23.60;62.30;98884.22;6261404;27;96325;-76
2022/06/10 05:58:58;;;;;;;;;19.80;18.00;;;;;23.67;62.56;98881.84;6261118;27;96592;-76
2022/06/10 06:02:02;;;;;;;;;24.20;18.20;;;;;23.85;62.21;98886.41;6243512;27;97869;-76
2022/06/10 06:05:07;;;;;;;;;27.00;22.00;;;;;24.01;61.37;98889.66;6224234;27;100088;-76
2022/06/10 06:08:11;;;;;;;;;22.50;21.00;;;;;24.03;60.64;98879.97;6261753;27;96967;-76
2022/06/10 06:11:15;;;;;;;;;22.00;19.50;;;;;24.15;60.90;98884.91;6258228;27;96827;-77
2022/06/10 06:14:20;;;;;;;;;21.60;17.60;;;;;24.16;59.91;98890.16;6242857;27;99820;-76
2022/06/10 06:17:24;;;;;;;;;24.00;20.00;;;;;23.72;59.79;98812.94;6262070;27;96242;-76
2022/06/10 06:20:27;;;;;;;;;23.60;19.60;;;;;24.24;59.88;98899.59;6224699;27;96674;-76
2022/06/10 06:23:31;;;;;;;;;22.00;18.75;;;;;24.18;59.59;98898.13;6201439;28;98490;-76
2022/06/10 06:26:34;;;;;;;;;23.00;20.00;;;;;24.21;59.80;98897.50;6247194;27;97121;-76
2022/06/10 06:29:39;;;;;;;;;22.40;19.00;;;;;24.03;59.87;98884.66;6230147;27;97888;-77
2022/06/10 06:32:43;;;;;;;;;25.00;21.00;;;;;23.93;59.70;98865.59;6241969;27;99695;-76
2022/06/10 06:35:51;;;;;;;;;23.50;19.00;;;;;24.26;59.91;98921.34;6239599;27;97148;-76
2022/06/10 06:38:54;;;;;;;;;22.00;19.25;;;;;24.28;59.86;98917.19;6248573;27;96360;-76
2022/06/10 06:41:59;;;;;;;;;24.40;20.00;;;;;24.37;59.69;98914.50;6251125;27;96499;-76
2022/06/10 06:45:11;;;;;;;;;23.50;22.00;;;;;24.32;59.76;98918.19;6208320;28;96753;-77
2022/06/10 06:48:23;;;;;;;;;26.00;22.00;;;;;24.39;60.11;98913.03;6238203;27;97616;-75
2022/06/10 06:51:27;;;;;;;;;22.50;20.00;;;;;24.43;59.63;98922.34;6236877;27;97182;-77
2022/06/10 06:54:31;;;;;;;;;29.80;20.80;;;;;24.36;59.99;98912.84;6260818;27;97531;-76
2022/06/10 06:57:34;;;;;;;;;26.50;22.50;;;;;24.38;59.94;98930.72;6245107;27;98392;-75
2022/06/10 07:00:39;;;;;;;;;24.00;20.25;;;;;24.29;59.85;98938.06;6257486;27;96976;-76
2022/06/10 07:03:43;;;;;;;;;28.00;21.00;;;;;24.16;60.55;98922.38;6263156;27;96486;-77
2022/06/10 07:06:46;;;;;;;;;27.80;21.20;;;;;24.32;60.58;98942.16;6244450;27;100232;-77
2022/06/10 07:09:51;;;;;;;;;22.80;21.00;;;;;24.41;60.13;98934.78;6261242;27;97439;-77
2022/06/10 07:12:55;;;;;;;;;22.25;19.00;;;;;24.30;59.88;98917.66;6240281;27;97821;-76
2022/06/10 07:16:02;;;;;;;;;22.40;19.40;;;;;24.28;59.74;98910.84;6233740;27;98123;-75
2022/06/10 07:19:06;;;;;;;;;24.80;20.20;;;;;24.53;59.68;98944.13;6221171;28;99676;-76
2022/06/10 07:22:11;;;;;;;;;24.40;20.40;;;;;24.47;59.85;98945.38;6241430;27;98279;-76
2022/06/10 07:25:14;;;;;;;;;28.20;22.60;;;;;24.38;59.88;98940.91;6244236;27;97102;-76
2022/06/10 07:28:18;;;;;;;;;28.00;22.00;;;;;24.26;60.16;98935.94;6260583;27;97322;-76
2022/06/10 07:31:23;;;;;;;;;29.75;22.75;;;;;24.31;60.77;98941.34;6245787;27;99162;-75
2022/06/10 07:34:27;;;;;;;;;26.00;22.80;;;;;24.33;60.92;98946.56;6259010;27;97485;-75
2022/06/10 07:37:30;;;;;;;;;27.00;22.00;;;;;24.26;61.12;98946.16;6248095;27;96612;-75
2022/06/10 07:44:14;;;;;;;;;28.00;24.00;;;;;24.37;61.20;98953.06;6254309;27;98089;-75
2022/06/10 07:47:19;;;;;;;;;27.80;24.00;;;;;24.39;61.20;98953.56;6239538;27;96840;-75
2022/06/10 07:50:23;;;;;;;;;30.20;26.80;;;;;24.43;60.80;98957.34;6226574;27;98215;-75
2022/06/10 07:53:29;;;;;;;;;28.50;24.50;;;;;24.54;60.39;98962.28;6225943;27;98755;-76
2022/06/10 07:56:34;;;;;;;;;26.50;23.00;;;;;24.65;60.28;98956.53;6246124;27;98983;-76
2022/06/10 07:59:40;;;;;;;;;29.60;24.40;;;;;24.85;60.25;98962.38;6238325;27;98098;-77
2022/06/10 08:02:45;;;;;;;;;24.50;22.00;;;;;24.86;59.69;98958.50;6238880;27;97197;-76
2022/06/10 08:05:48;;;;;;;;;25.00;21.40;;;;;24.79;59.93;98954.53;6234304;27;96624;-76
2022/06/10 08:08:52;;;;;;;;;27.00;23.00;;;;;24.88;59.64;98961.78;6257496;27;96690;-76
2022/06/10 08:11:56;;;;;;;;;28.00;22.00;;;;;24.88;59.37;98969.22;6251473;27;96546;-76
2022/06/10 08:14:59;;;;;;;;;26.60;23.40;;;;;24.74;59.52;98968.44;6243167;27;97125;-76
2022/06/10 08:18:06;;;;;;;;;29.33;26.33;;;;;24.80;59.35;98965.25;6263581;27;97150;-77
2022/06/10 08:24:30;;;;;;;;;27.40;25.80;;;;;24.80;59.09;98976.28;6254133;27;97640;-75
2022/06/10 08:27:34;;;;;;;;;29.00;26.25;;;;;24.82;59.10;98974.06;6256007;27;96692;-75
2022/06/10 08:30:38;;;;;;;;;30.00;27.00;;;;;24.81;59.12;98961.38;6236309;27;96779;-75
2022/06/10 08:33:43;;;;;;;;;28.00;24.00;;;;;24.97;58.66;98981.94;6223675;27;96629;-75
2022/06/10 08:36:46;;;;;;;;;29.75;26.25;;;;;25.06;58.53;98979.28;6239079;27;98487;-74
2022/06/10 08:39:50;;;;;;;;;30.00;27.00;;;;;25.03;58.32;98975.19;6238016;27;96662;-74
2022/06/10 08:42:55;;;;;;;;;31.00;27.00;;;;;25.33;57.80;98983.81;6240925;27;97997;-76
2022/06/10 08:46:11;;;;;;;;;31.60;25.00;;;;;25.55;57.29;98978.28;6263494;27;97122;-76
2022/06/10 08:49:42;;;;;;;;;30.00;24.75;;;;;25.64;56.55;98979.16;6227506;27;99699;-76
2022/06/10 08:52:58;;;;;;;;;30.20;28.00;;;;;25.53;56.69;98983.28;6244375;27;100044;-76
2022/06/10 08:56:08;;;;;;;;;28.40;25.40;;;;;25.36;57.52;98983.19;6244281;27;99696;-75
2022/06/10 08:59:21;;;;;;;;;31.00;26.00;;;;;25.31;58.21;98991.59;6253310;27;97162;-76
2022/06/10 09:02:31;;;;;;;;;27.40;24.40;;;;;25.21;58.37;99000.16;6222240;27;98560;-75
2022/06/10 09:05:40;;;;;;;;;28.00;24.20;;;;;25.20;58.82;99009.56;6263411;27;97100;-76
2022/06/10 09:08:47;;;;;;;;;25.25;21.25;;;;;25.17;58.29;98997.19;6244881;27;96852;-76
2022/06/10 09:11:54;;;;;;;;;27.00;22.00;;;;;25.29;57.85;99011.22;6263108;27;96945;-76
2022/06/10 09:15:03;;;;;;;;;24.00;21.00;;;;;25.41;57.75;99021.72;6255521;27;97465;-75
2022/06/10 09:18:19;;;;;;;;;25.00;20.00;;;;;25.66;57.16;99025.75;6252591;27;96554;-74
2022/06/10 09:21:32;;;;;;;;;25.80;20.00;;;;;25.69;57.21;99022.38;6248095;27;96765;-75
2022/06/10 09:24:43;;;;;;;;;24.80;21.80;;;;;25.85;57.22;99029.13;6263105;27;96715;-75
2022/06/10 09:27:50;;;;;;;;;22.80;20.40;;;;;25.96;56.26;99029.63;6249144;27;96315;-75
2022/06/10 09:30:58;;;;;;;;;24.00;20.80;;;;;26.06;56.38;99029.34;6262648;27;96832;-75
2022/06/10 09:34:12;;;;;;;;;19.25;18.00;;;;;26.11;56.37;99031.94;6262694;27;97698;-76
2022/06/10 09:37:25;;;;;;;;;22.00;20.00;;;;;26.00;55.64;99039.72;6262594;27;96556;-77
2022/06/10 09:40:38;;;;;;;;;21.00;18.00;;;;;26.07;55.34;99037.31;6227561;27;96817;-74
2022/06/10 09:43:58;;;;;;;;;19.00;18.00;;;;;25.71;55.86;99034.72;6231509;27;96603;-75
2022/06/10 09:47:17;;;;;;;;;23.75;17.75;;;;;25.67;56.62;99047.53;6258610;27;96811;-76
2022/06/10 09:50:31;;;;;;;;;19.00;16.00;;;;;25.70;56.39;99049.69;6262874;27;96470;-74
2022/06/10 09:54:02;;;;;;;;;20.25;17.25;;;;;25.52;56.69;99049.84;6262416;27;97482;-74
2022/06/10 09:57:38;;;;;;;;;18.80;16.40;;;;;25.51;57.00;99048.22;6247325;27;96572;-75
2022/06/10 10:00:52;;;;;;;;;21.00;18.00;;;;;25.48;57.51;99052.41;6230608;27;98031;-76
2022/06/10 10:04:43;;;;;;;;;21.20;18.00;;;;;25.48;57.64;99044.13;6252513;27;97238;-76
2022/06/10 10:07:51;;;;;;;;;18.00;16.00;;;;;25.66;57.10;99051.41;6229915;27;96374;-75
2022/06/10 10:11:00;;;;;;;;;22.00;18.00;;;;;25.75;56.36;99057.00;6239640;27;97015;-74
2022/06/10 10:14:18;;;;;;;;;21.00;16.00;;;;;25.92;56.23;99056.25;6241899;27;98694;-74
2022/06/10 10:17:45;;;;;;;;;15.33;14.00;;;;;25.90;55.31;99053.84;6258060;27;97642;-75
2022/06/10 10:21:02;;;;;;;;;14.00;13.60;;;;;25.90;55.71;99039.22;6228818;27;96776;-76
2022/06/10 10:24:14;;;;;;;;;19.50;17.00;;;;;26.04;55.67;99053.72;6223430;27;96977;-75
2022/06/10 10:27:22;;;;;;;;;16.80;15.80;;;;;26.00;55.27;99061.81;6260354;27;96846;-75
2022/06/10 10:30:33;;;;;;;;;15.00;14.00;;;;;26.00;55.24;99070.09;6234283;27;97756;-75
2022/06/10 10:33:37;;;;;;;;;16.40;13.40;;;;;26.04;54.62;99067.53;6251911;27;97507;-75
2022/06/10 10:36:49;;;;;;;;;14.60;13.40;;;;;26.05;54.20;99077.44;6238178;27;98126;-75
2022/06/10 10:39:59;;;;;;;;;15.00;13.60;;;;;25.94;53.60;99071.41;6258200;27;96920;-75
2022/06/10 10:43:12;;;;;;;;;13.00;13.00;;;;;25.93;53.66;99064.25;6260974;27;97348;-74
2022/06/10 10:46:39;;;;;;;;;15.75;13.75;;;;;26.05;53.90;99074.66;6257544;27;96492;-77
2022/06/10 10:49:45;;;;;;;;;15.40;14.00;;;;;26.01;53.29;99060.69;6238324;27;97463;-74
2022/06/10 10:52:49;;;;;;;;;14.00;13.00;;;;;26.10;53.07;99058.75;6237389;27;97911;-75
2022/06/10 10:55:56;;;;;;;;;13.00;13.00;;;;;26.14;53.24;99061.72;6256002;27;97458;-73
2022/06/10 10:59:01;;;;;;;;;13.75;12.25;;;;;26.09;52.37;99064.63;6256456;27;98141;-75
2022/06/10 11:02:33;;;;;;;;;14.00;13.00;;;;;26.18;52.78;99068.25;6255135;27;97147;-75
2022/06/10 11:05:38;;;;;;;;;13.40;11.40;;;;;26.29;52.44;99066.84;6259707;27;96560;-74
2022/06/10 11:08:56;;;;;;;;;17.50;15.00;;;;;26.39;51.97;99068.50;6240589;27;98387;-74
2022/06/10 11:12:05;;;;;;;;;16.00;14.00;;;;;26.55;51.24;99073.25;6244839;27;98429;-75
2022/06/10 11:15:18;;;;;;;;;16.00;14.00;;;;;26.36;50.35;99045.06;6262755;27;96509;-75
2022/06/10 11:18:22;;;;;;;;;14.75;14.00;;;;;26.60;51.43;99073.09;6260351;27;97426;-74
2022/06/10 11:21:26;;;;;;;;;17.00;15.00;;;;;26.53;51.01;99074.72;6241493;27;97734;-73
2022/06/10 11:24:33;;;;;;;;;15.00;14.00;;;;;26.51;51.03;99071.44;6238703;27;97586;-74
2022/06/10 11:27:41;;;;;;;;;14.60;13.40;;;;;26.70;51.34;99078.31;6263592;27;97034;-74
2022/06/10 11:30:49;;;;;;;;;14.00;13.20;;;;;26.94;50.40;99077.88;6261050;27;96650;-75
2022/06/10 11:33:57;;;;;;;;;14.50;13.25;;;;;26.86;50.62;99047.44;6242214;27;97129;-74
2022/06/10 11:37:02;;;;;;;;;16.60;14.20;;;;;27.03;50.04;99080.66;6263321;27;97799;-74
2022/06/10 11:40:14;;;;;;;;;14.40;13.40;;;;;26.95;49.93;99075.94;6227187;27;98468;-74
2022/06/10 11:43:23;;;;;;;;;13.60;13.00;;;;;26.61;50.45;99047.06;6245348;27;97214;-74
2022/06/10 11:46:31;;;;;;;;;15.00;14.00;;;;;26.62;50.39;99070.84;6228441;27;97250;-76
2022/06/10 11:49:40;;;;;;;;;12.00;11.60;;;;;26.58;50.74;99069.84;6249434;27;97467;-75
2022/06/10 11:52:50;;;;;;;;;16.00;14.80;;;;;26.50;50.75;99070.63;6263101;27;96780;-74
2022/06/10 11:59:42;;;;;;;;;17.00;15.80;;;;;26.42;51.30;99065.09;6243138;27;97288;-74
2022/06/10 12:02:51;;;;;;;;;17.50;16.00;;;;;26.38;51.49;99075.16;6235190;27;97239;-74
2022/06/10 12:06:01;;;;;;;;;14.80;14.00;;;;;26.32;51.65;99062.63;6253624;27;97425;-75
2022/06/10 12:09:15;;;;;;;;;15.00;14.20;;;;;26.20;52.19;99069.53;6244637;27;96688;-75
2022/06/10 12:12:23;;;;;;;;;19.40;16.40;;;;;26.01;53.19;99070.91;6262713;27;99762;-74
2022/06/10 12:15:32;;;;;;;;;15.00;14.00;;;;;25.93;53.65;99069.75;6246438;27;98247;-75
2022/06/10 12:18:47;;;;;;;;;16.40;16.00;;;;;25.82;54.34;99074.75;6240023;27;97095;-75
2022/06/10 12:21:51;;;;;;;;;16.20;13.80;;;;;25.91;54.47;99066.50;6243799;27;97539;-75
2022/06/10 12:24:56;;;;;;;;;15.50;14.00;;;;;25.91;55.08;99058.19;6238295;27;96659;-76
2022/06/10 12:28:08;;;;;;;;;16.00;15.20;;;;;26.19;54.39;99058.81;6246564;27;99824;-75
2022/06/10 12:31:31;;;;;;;;;15.00;12.00;;;;;26.52;53.18;99039.91;6262865;27;96565;-76
2022/06/10 12:35:03;;;;;;;;;17.20;16.00;;;;;26.89;51.66;99064.22;6261327;27;97490;-75
2022/06/10 12:38:15;;;;;;;;;15.60;14.60;;;;;27.01;51.27;99063.56;6227483;27;96972;-74
2022/06/10 12:41:24;;;;;;;;;17.00;15.00;;;;;27.19;50.89;99075.44;6263301;27;97284;-74
2022/06/10 12:44:29;;;;;;;;;16.00;14.20;;;;;27.21;49.53;99062.09;6241738;27;98339;-73
2022/06/10 12:47:37;;;;;;;;;15.00;14.20;;;;;27.26;49.32;99073.00;6223392;27;97446;-74
2022/06/10 12:50:54;;;;;;;;;17.20;15.80;;;;;27.26;49.33;99071.06;6259363;27;97040;-74
2022/06/10 12:54:02;;;;;;;;;17.40;15.00;;;;;27.01;48.87;99036.72;6257635;27;96353;-75
2022/06/10 12:57:37;;;;;;;;;15.20;14.20;;;;;27.15;48.74;99076.09;6257515;27;97555;-75
2022/06/10 13:00:43;;;;;;;;;14.00;14.00;;;;;27.11;48.78;99066.84;6253682;27;97415;-76
2022/06/10 13:03:48;;;;;;;;;14.00;13.00;;;;;27.05;49.53;99065.38;6239086;27;97171;-73
2022/06/10 13:06:58;;;;;;;;;17.60;16.20;;;;;27.02;49.70;99073.50;6239680;27;96964;-74
2022/06/10 13:10:40;;;;;;;;;17.40;15.80;;;;;26.94;50.24;99069.59;6226541;27;98100;-74
2022/06/10 13:13:45;;;;;;;;;16.40;16.00;;;;;26.75;49.73;99038.63;6218050;27;96715;-73
2022/06/10 13:17:07;;;;;;;;;16.60;15.00;;;;;26.94;49.74;99066.81;6243834;27;97816;-75
2022/06/10 13:20:22;;;;;;;;;15.20;13.20;;;;;26.85;49.77;99067.91;6233417;27;97309;-76
2022/06/10 13:23:28;;;;;;;;;17.00;15.00;;;;;26.86;49.65;99072.31;6232575;27;97117;-74
2022/06/10 13:26:32;;;;;;;;;18.00;15.00;;;;;26.77;49.63;99080.63;6263068;27;96501;-74
2022/06/10 13:29:35;;;;;;;;;13.25;13.25;;;;;26.66;49.58;99071.81;6245585;27;97611;-73
2022/06/10 13:32:40;;;;;;;;;14.00;12.20;;;;;26.57;49.82;99072.94;6240172;27;97469;-74
2022/06/10 13:35:55;;;;;;;;;15.00;14.40;;;;;26.43;49.95;99070.31;6226425;27;98424;-74
2022/06/10 13:39:01;;;;;;;;;15.00;14.20;;;;;26.44;49.53;99080.22;6252043;27;97508;-74
2022/06/10 13:42:06;;;;;;;;;14.75;14.00;;;;;26.43;49.86;99080.53;6252963;27;96545;-74
2022/06/10 13:45:18;;;;;;;;;16.20;15.80;;;;;26.44;50.35;99084.94;6243027;27;96544;-75
2022/06/10 13:48:23;;;;;;;;;18.60;16.00;;;;;26.43;49.69;99080.53;6252437;27;98338;-74
2022/06/10 13:51:34;;;;;;;;;18.40;17.00;;;;;26.34;49.37;99082.47;6250261;27;97725;-74
2022/06/10 13:54:39;;;;;;;;;20.00;17.75;;;;;26.30;49.17;99071.22;6262316;27;96484;-75
2022/06/10 13:57:42;;;;;;;;;23.40;20.40;;;;;26.33;49.62;99075.31;6262067;27;97051;-74
2022/06/10 14:00:48;;;;;;;;;20.00;19.00;;;;;26.33;49.24;99081.66;6226081;27;98365;-74
2022/06/10 14:03:57;;;;;;;;;19.00;18.40;;;;;26.39;49.37;99071.28;6226555;27;98810;-74
2022/06/10 14:07:06;;;;;;;;;21.00;18.00;;;;;26.39;49.42;99085.09;6235056;27;100269;-73
2022/06/10 14:10:20;;;;;;;;;16.60;16.20;;;;;26.40;48.71;99079.22;6219379;27;97498;-74
2022/06/10 14:13:26;;;;;;;;;19.00;17.00;;;;;26.46;49.26;99071.59;6216128;27;97040;-74
2022/06/10 14:16:33;;;;;;;;;22.80;20.20;;;;;26.55;49.06;99070.47;6257248;27;96901;-74
2022/06/10 14:19:41;;;;;;;;;19.60;17.60;;;;;26.70;49.07;99071.97;6235124;27;96650;-74
2022/06/10 14:23:01;;;;;;;;;18.20;17.80;;;;;26.78;48.63;99073.13;6240672;27;97328;-75
2022/06/10 14:26:21;;;;;;;;;17.00;15.00;;;;;26.71;48.09;99073.59;6243783;27;97762;-76
2022/06/10 14:29:29;;;;;;;;;20.00;16.00;;;;;26.65;48.87;99069.34;6240045;27;98278;-74
2022/06/10 14:32:36;;;;;;;;;18.00;16.00;;;;;26.63;48.84;99077.19;6236929;27;97814;-73
2022/06/10 14:35:42;;;;;;;;;18.00;16.00;;;;;26.62;48.62;99073.59;6236706;27;98797;-74
2022/06/10 14:39:08;;;;;;;;;19.00;17.40;;;;;26.59;49.30;99078.94;6260735;27;96789;-73
2022/06/10 14:42:25;;;;;;;;;16.20;14.60;;;;;26.62;49.25;99075.53;6238543;27;97249;-74
2022/06/10 14:45:34;;;;;;;;;18.80;16.60;;;;;26.44;48.50;99060.84;6233004;27;96614;-75